Time;durP1;ratioP1;P1;durP2;ratioP2;P2;SDS_P1;SDS_P2;PMS_P1;PMS_P2;Temp;Humidity;BMP_temperature;BMP_pressure;BME280_temperature;BME280_humidity;BME280_pressure;Samples;Min_cycle;Max_cycle;Signal;HPM_P1;HPM_P2
2023/07/31 00:00:40;;;;;;;;;;;;;;;;;;6272710;28;19990;-61
2023/07/31 00:03:59;;;;;;;;;;;;;;;;;;6268873;28;19936;-61
2023/07/31 00:07:00;;;;;;;;;;;;;;;;;;6270331;28;19928;-62
2023/07/31 00:10:00;;;;;;;;;;;;;;;;;;6272290;28;19935;-63
2023/07/31 00:13:01;;;;;;;;;;;;;;;;;;6268489;28;20632;-63
2023/07/31 00:16:02;;;;;;;;;;;;;;;;;;6272227;28;20387;-61
2023/07/31 00:19:02;;;;;;;;;;;;;;;;;;6272559;28;20474;-61
2023/07/31 00:22:03;;;;;;;;;;;;;;;;;;6271540;28;19928;-61
2023/07/31 00:25:06;;;;;;;;;;;;;;;;;;6272511;28;20272;-61
2023/07/31 00:28:06;;;;;;;;;;;;;;;;;;6272067;28;19928;-61
2023/07/31 00:31:07;;;;;;;;;;;;;;;;;;6271724;28;19935;-63
2023/07/31 00:34:07;;;;;;;;;;;;;;;;;;6270891;28;20355;-62
2023/07/31 00:37:08;;;;;;;;;;;;;;;;;;6272930;28;20382;-64
2023/07/31 00:40:08;;;;;;;;;;;;;;;;;;6272338;28;19924;-63
2023/07/31 00:43:09;;;;;;;;;;;;;;;;;;6269051;28;19924;-62
2023/07/31 00:46:09;;;;;;;;;;;;;;;;;;6271788;28;19932;-63
2023/07/31 00:49:10;;;;;;;;;;;;;;;;;;6273153;28;20307;-63
2023/07/31 00:52:11;;;;;;;;;;;;;;;;;;6267506;28;19920;-63
2023/07/31 00:55:12;;;;;;;;;;;;;;;;;;6269680;28;20463;-61
2023/07/31 00:58:12;;;;;;;;;;;;;;;;;;6274574;28;20496;-62
2023/07/31 01:01:13;;;;;;;;;;;;;;;;;;6269063;28;19928;-61
2023/07/31 01:04:13;;;;;;;;;;;;;;;;;;6272568;28;20359;-63
2023/07/31 01:07:20;;;;;;;;;;;;;;;;;;6271170;28;19920;-61
2023/07/31 01:10:23;;;;;;;;;;;;;;;;;;6270494;28;20978;-61
2023/07/31 01:13:23;;;;;;;;;;;;;;;;;;6267188;28;19928;-62
2023/07/31 01:16:25;;;;;;;;;;;;;;;;;;6272537;28;19928;-63
2023/07/31 01:19:27;;;;;;;;;;;;;;;;;;6271438;28;19931;-63
2023/07/31 01:22:27;;;;;;;;;;;;;;;;;;6267790;28;21000;-62
2023/07/31 01:25:28;;;;;;;;;;;;;;;;;;6271803;28;20011;-63
2023/07/31 01:28:47;;;;;;;;;;;;;;;;;;6271538;28;19957;-61
2023/07/31 01:31:49;;;;;;;;;;;;;;;;;;6269010;28;20592;-62
2023/07/31 01:34:49;;;;;;;;;;;;;;;;;;6270285;28;20372;-62
2023/07/31 01:37:52;;;;;;;;;;;;;;;;;;6272763;28;19929;-61
2023/07/31 01:40:52;;;;;;;;;;;;;;;;;;6272084;28;19974;-62
2023/07/31 01:43:53;;;;;;;;;;;;;;;;;;6268662;28;19928;-62
2023/07/31 01:46:53;;;;;;;;;;;;;;;;;;6274160;28;19948;-61
2023/07/31 01:49:54;;;;;;;;;;;;;;;;;;6272357;28;19925;-61
2023/07/31 01:52:55;;;;;;;;;;;;;;;;;;6266679;28;20299;-60
2023/07/31 01:55:55;;;;;;;;;;;;;;;;;;6270785;28;19928;-61
2023/07/31 01:58:56;;;;;;;;;;;;;;;;;;6274226;28;19935;-60
2023/07/31 02:01:56;;;;;;;;;;;;;;;;;;6276096;28;19989;-60
2023/07/31 02:04:57;;;;;;;;;;;;;;;;;;6274167;28;19924;-62
2023/07/31 02:07:57;;;;;;;;;;;;;;;;;;6274410;28;19951;-61
2023/07/31 02:10:58;;;;;;;;;;;;;;;;;;6274990;28;19955;-60
2023/07/31 02:13:58;;;;;;;;;;;;;;;;;;6272514;28;20299;-61
2023/07/31 02:16:59;;;;;;;;;;;;;;;;;;6271722;28;19928;-61
2023/07/31 02:19:59;;;;;;;;;;;;;;;;;;6274311;28;20644;-61
2023/07/31 02:23:00;;;;;;;;;;;;;;;;;;6273723;28;19928;-61
2023/07/31 02:26:00;;;;;;;;;;;;;;;;;;6277901;28;19924;-62
2023/07/31 02:29:01;;;;;;;;;;;;;;;;;;6273880;28;19925;-61
2023/07/31 02:32:01;;;;;;;;;;;;;;;;;;6273090;28;19978;-61
2023/07/31 02:35:02;;;;;;;;;;;;;;;;;;6273448;28;20383;-61
2023/07/31 02:38:03;;;;;;;;;;;;;;;;;;6272872;28;19942;-61
2023/07/31 02:41:03;;;;;;;;;;;;;;;;;;6274886;28;19928;-62
2023/07/31 02:44:04;;;;;;;;;;;;;;;;;;6270808;28;20379;-60
2023/07/31 02:47:04;;;;;;;;;;;;;;;;;;6274096;28;19929;-60
2023/07/31 02:50:05;;;;;;;;;;;;;;;;;;6275669;28;20410;-62
2023/07/31 02:53:06;;;;;;;;;;;;;;;;;;6268438;28;19928;-61
2023/07/31 02:56:06;;;;;;;;;;;;;;;;;;6273227;28;19935;-62
2023/07/31 02:59:07;;;;;;;;;;;;;;;;;;6274248;28;20380;-62
2023/07/31 03:02:07;;;;;;;;;;;;;;;;;;6268026;28;20397;-61
2023/07/31 03:05:08;;;;;;;;;;;;;;;;;;6277267;28;19935;-60
2023/07/31 03:08:08;;;;;;;;;;;;;;;;;;6275626;28;20276;-62
2023/07/31 03:11:09;;;;;;;;;;;;;;;;;;6274732;28;19921;-61
2023/07/31 03:14:09;;;;;;;;;;;;;;;;;;6268026;28;19966;-63
2023/07/31 03:17:10;;;;;;;;;;;;;;;;;;6275388;28;19924;-63
2023/07/31 03:20:10;;;;;;;;;;;;;;;;;;6275852;28;19924;-62
2023/07/31 03:23:11;;;;;;;;;;;;;;;;;;6268761;28;19993;-60
2023/07/31 03:26:11;;;;;;;;;;;;;;;;;;6274351;28;20020;-63
2023/07/31 03:29:12;;;;;;;;;;;;;;;;;;6307208;27;19924;-63
2023/07/31 03:32:13;;;;;;;;;;;;;;;;;;6271372;28;19924;-61
2023/07/31 03:35:13;;;;;;;;;;;;;;;;;;6277352;28;20288;-62
2023/07/31 03:38:14;;;;;;;;;;;;;;;;;;6273569;28;19935;-60
2023/07/31 03:41:14;;;;;;;;;;;;;;;;;;6273647;28;20017;-62
2023/07/31 03:44:15;;;;;;;;;;;;;;;;;;6268886;28;20038;-62
2023/07/31 03:47:15;;;;;;;;;;;;;;;;;;6274488;28;20232;-62
2023/07/31 03:50:16;;;;;;;;;;;;;;;;;;6274084;28;19929;-62
2023/07/31 03:53:16;;;;;;;;;;;;;;;;;;6268722;28;19928;-61
2023/07/31 03:56:17;;;;;;;;;;;;;;;;;;6274249;28;19935;-62
2023/07/31 03:59:17;;;;;;;;;;;;;;;;;;6272968;28;20308;-62
2023/07/31 04:02:18;;;;;;;;;;;;;;;;;;6274013;28;20301;-62
2023/07/31 04:05:19;;;;;;;;;;;;;;;;;;6271648;28;20431;-62
2023/07/31 04:08:19;;;;;;;;;;;;;;;;;;6270873;28;19936;-60
2023/07/31 04:11:20;;;;;;;;;;;;;;;;;;6271113;28;19971;-62
2023/07/31 04:14:21;;;;;;;;;;;;;;;;;;6271388;28;19989;-62
2023/07/31 04:17:21;;;;;;;;;;;;;;;;;;6272429;28;19931;-62
2023/07/31 04:20:22;;;;;;;;;;;;;;;;;;6268971;28;19924;-60
2023/07/31 04:23:22;;;;;;;;;;;;;;;;;;6266558;28;20386;-60
2023/07/31 04:26:23;;;;;;;;;;;;;;;;;;6280681;28;19928;-59
2023/07/31 04:29:24;;;;;;;;;;;;;;;;;;6281156;28;19924;-59
2023/07/31 04:32:24;;;;;;;;;;;;;;;;;;6274689;28;19929;-62
2023/07/31 04:35:25;;;;;;;;;;;;;;;;;;6271226;28;19935;-64
2023/07/31 04:38:25;;;;;;;;;;;;;;;;;;6275357;28;19942;-64
2023/07/31 04:41:25;;;;;;;;;;;;;;;;;;6274238;28;19920;-65
2023/07/31 04:44:26;;;;;;;;;;;;;;;;;;6287864;28;19931;-65
2023/07/31 04:47:26;;;;;;;;;;;;;;;;;;6298129;28;20448;-64
2023/07/31 04:50:27;;;;;;;;;;;;;;;;;;6291429;28;20371;-64
2023/07/31 04:53:28;;;;;;;;;;;;;;;;;;6279439;28;19957;-64
2023/07/31 04:56:28;;;;;;;;;;;;;;;;;;6282223;28;19994;-61
2023/07/31 04:59:29;;;;;;;;;;;;;;;;;;6280783;28;20568;-61
2023/07/31 05:02:30;;;;;;;;;;;;;;;;;;6276692;28;19920;-63
2023/07/31 05:05:30;;;;;;;;;;;;;;;;;;6278983;28;19927;-64
2023/07/31 05:08:31;;;;;;;;;;;;;;;;;;6276622;28;20291;-64
2023/07/31 05:11:31;;;;;;;;;;;;;;;;;;6278912;28;20253;-61
2023/07/31 05:14:32;;;;;;;;;;;;;;;;;;6275230;28;19928;-63
2023/07/31 05:17:32;;;;;;;;;;;;;;;;;;6282407;28;19920;-63
2023/07/31 05:20:33;;;;;;;;;;;;;;;;;;6275005;28;19921;-64
2023/07/31 05:23:33;;;;;;;;;;;;;;;;;;6265449;28;19924;-64
2023/07/31 05:26:34;;;;;;;;;;;;;;;;;;6271324;28;20376;-64
2023/07/31 05:29:35;;;;;;;;;;;;;;;;;;6272605;28;19982;-64
2023/07/31 05:32:35;;;;;;;;;;;;;;;;;;6268245;28;19956;-65
2023/07/31 05:35:35;;;;;;;;;;;;;;;;;;6272559;28;20265;-64
2023/07/31 05:38:36;;;;;;;;;;;;;;;;;;6272642;28;20292;-64
2023/07/31 05:41:37;;;;;;;;;;;;;;;;;;6272601;28;19970;-64
2023/07/31 05:44:37;;;;;;;;;;;;;;;;;;6305495;28;20102;-64
2023/07/31 05:47:38;;;;;;;;;;;;;;;;;;6273319;28;20340;-64
2023/07/31 05:50:39;;;;;;;;;;;;;;;;;;6273928;28;20350;-62
2023/07/31 05:53:40;;;;;;;;;;;;;;;;;;6273315;28;20378;-64
2023/07/31 05:56:41;;;;;;;;;;;;;;;;;;6271892;28;19925;-63
2023/07/31 05:59:41;;;;;;;;;;;;;;;;;;6282763;28;19927;-64
2023/07/31 06:02:42;;;;;;;;;;;;;;;;;;6272076;28;19980;-64
2023/07/31 06:05:42;;;;;;;;;;;;;;;;;;6270079;28;19920;-64
2023/07/31 06:08:43;;;;;;;;;;;;;;;;;;6274264;28;19924;-63
2023/07/31 06:11:43;;;;;;;;;;;;;;;;;;6273747;28;19929;-64
2023/07/31 06:14:44;;;;;;;;;;;;;;;;;;6271762;28;19984;-64
2023/07/31 06:17:45;;;;;;;;;;;;;;;;;;6274975;28;20365;-64
2023/07/31 06:20:47;;;;;;;;;;;;;;;;;;6272142;28;19995;-64
2023/07/31 06:23:47;;;;;;;;;;;;;;;;;;6272377;28;20449;-63
2023/07/31 06:26:48;;;;;;;;;;;;;;;;;;6272167;28;20193;-64
2023/07/31 06:29:48;;;;;;;;;;;;;;;;;;6273152;28;20292;-65
2023/07/31 06:32:49;;;;;;;;;;;;;;;;;;6272220;28;19928;-64
2023/07/31 06:35:49;;;;;;;;;;;;;;;;;;6273901;28;19928;-64
2023/07/31 06:38:50;;;;;;;;;;;;;;;;;;6273578;28;19932;-64
2023/07/31 06:41:50;;;;;;;;;;;;;;;;;;6273067;28;20446;-64
2023/07/31 06:44:51;;;;;;;;;;;;;;;;;;6270278;28;19921;-64
2023/07/31 06:47:51;;;;;;;;;;;;;;;;;;6273361;28;20015;-64
2023/07/31 06:50:52;;;;;;;;;;;;;;;;;;6270699;28;19943;-65
2023/07/31 06:53:53;;;;;;;;;;;;;;;;;;6268814;28;19955;-63
2023/07/31 06:56:54;;;;;;;;;;;;;;;;;;6269864;28;19920;-64
2023/07/31 06:59:54;;;;;;;;;;;;;;;;;;6271318;28;19921;-64
2023/07/31 07:02:55;;;;;;;;;;;;;;;;;;6268606;28;19921;-64
2023/07/31 07:05:55;;;;;;;;;;;;;;;;;;6271074;28;19929;-63
2023/07/31 07:08:56;;;;;;;;;;;;;;;;;;6271809;28;20429;-64
2023/07/31 07:11:56;;;;;;;;;;;;;;;;;;6270889;28;20338;-63
2023/07/31 07:15:00;;;;;;;;;;;;;;;;;;6271824;28;20009;-64
2023/07/31 07:18:00;;;;;;;;;;;;;;;;;;6272084;28;19920;-64
2023/07/31 07:21:02;;;;;;;;;;;;;;;;;;6270634;28;19920;-64
2023/07/31 07:24:02;;;;;;;;;;;;;;;;;;6269542;28;19947;-64
2023/07/31 07:27:03;;;;;;;;;;;;;;;;;;6271827;28;20405;-64
2023/07/31 07:30:04;;;;;;;;;;;;;;;;;;6271535;28;19931;-65
2023/07/31 07:33:05;;;;;;;;;;;;;;;;;;6271650;28;19955;-61
2023/07/31 07:36:09;;;;;;;;;;;;;;;;;;6271605;28;19925;-65
2023/07/31 07:39:11;;;;;;;;;;;;;;;;;;6267371;28;20360;-64
2023/07/31 07:42:11;;;;;;;;;;;;;;;;;;6267472;28;19978;-63
2023/07/31 07:45:12;;;;;;;;;;;;;;;;;;6276679;28;20341;-62
2023/07/31 07:48:13;;;;;;;;;;;;;;;;;;6269450;28;20584;-64
2023/07/31 07:51:13;;;;;;;;;;;;;;;;;;6266941;28;20296;-64
2023/07/31 07:54:14;;;;;;;;;;;;;;;;;;6271274;28;20963;-65
2023/07/31 07:57:15;;;;;;;;;;;;;;;;;;6270544;28;20283;-64
2023/07/31 08:00:15;;;;;;;;;;;;;;;;;;6271273;28;19925;-65
2023/07/31 08:03:16;;;;;;;;;;;;;;;;;;6269196;28;19920;-61
2023/07/31 08:06:17;;;;;;;;;;;;;;;;;;6271872;28;20039;-63
2023/07/31 08:09:17;;;;;;;;;;;;;;;;;;6271010;28;19928;-64
2023/07/31 08:12:18;;;;;;;;;;;;;;;;;;6268975;28;20986;-64
2023/07/31 08:15:18;;;;;;;;;;;;;;;;;;6270550;28;19921;-64
2023/07/31 08:18:19;;;;;;;;;;;;;;;;;;6269991;28;19970;-64
2023/07/31 08:21:21;;;;;;;;;;;;;;;;;;6267565;28;19961;-64
2023/07/31 08:24:21;;;;;;;;;;;;;;;;;;6267708;28;20381;-61
2023/07/31 08:27:22;;;;;;;;;;;;;;;;;;6268930;28;20227;-63
2023/07/31 08:30:22;;;;;;;;;;;;;;;;;;6269375;28;19921;-63
2023/07/31 08:33:23;;;;;;;;;;;;;;;;;;6270283;28;20296;-65
2023/07/31 08:36:23;;;;;;;;;;;;;;;;;;6268747;28;19921;-64
2023/07/31 08:39:24;;;;;;;;;;;;;;;;;;6268006;28;19929;-65
2023/07/31 08:42:25;;;;;;;;;;;;;;;;;;6266611;28;19932;-65
2023/07/31 08:45:26;;;;;;;;;;;;;;;;;;6270164;28;19924;-64
2023/07/31 08:48:27;;;;;;;;;;;;;;;;;;6270195;28;19931;-64
2023/07/31 08:51:29;;;;;;;;;;;;;;;;;;6265306;28;19924;-64
2023/07/31 08:54:32;;;;;;;;;;;;;;;;;;6267652;28;20003;-62
2023/07/31 08:57:34;;;;;;;;;;;;;;;;;;6266707;28;19920;-63
2023/07/31 09:00:35;;;;;;;;;;;;;;;;;;6270502;28;19928;-65
2023/07/31 09:03:37;;;;;;;;;;;;;;;;;;6270770;28;19925;-63
2023/07/31 09:06:38;;;;;;;;;;;;;;;;;;6269351;28;19929;-63
2023/07/31 09:09:39;;;;;;;;;;;;;;;;;;6268920;28;19927;-64
2023/07/31 09:12:39;;;;;;;;;;;;;;;;;;6268226;28;19925;-64
2023/07/31 09:15:40;;;;;;;;;;;;;;;;;;6271602;28;19920;-65
2023/07/31 09:18:56;;;;;;;;;;;;;;;;;;6266109;28;19928;-65
2023/07/31 09:21:57;;;;;;;;;;;;;;;;;;6266774;28;19920;-64
2023/07/31 09:25:04;;;;;;;;;;;;;;;;;;6267411;28;20367;-64
2023/07/31 09:28:06;;;;;;;;;;;;;;;;;;6270191;28;19927;-63
2023/07/31 09:31:06;;;;;;;;;;;;;;;;;;6268463;28;19967;-65
2023/07/31 09:34:07;;;;;;;;;;;;;;;;;;6268916;28;19973;-64
2023/07/31 09:37:07;;;;;;;;;;;;;;;;;;6269756;28;20359;-64
2023/07/31 09:40:08;;;;;;;;;;;;;;;;;;6268814;28;19951;-64
2023/07/31 09:43:10;;;;;;;;;;;;;;;;;;6266457;28;19932;-65
2023/07/31 09:46:14;;;;;;;;;;;;;;;;;;6267931;28;20015;-62
2023/07/31 09:49:14;;;;;;;;;;;;;;;;;;6268781;28;19965;-65
2023/07/31 09:52:15;;;;;;;;;;;;;;;;;;6268078;28;20334;-64
2023/07/31 09:55:16;;;;;;;;;;;;;;;;;;6262661;28;20474;-64
2023/07/31 09:58:17;;;;;;;;;;;;;;;;;;6266540;28;20152;-64
2023/07/31 10:01:17;;;;;;;;;;;;;;;;;;6272383;28;19936;-65
2023/07/31 10:04:25;;;;;;;;;;;;;;;;;;6277146;28;19925;-64
2023/07/31 10:07:28;;;;;;;;;;;;;;;;;;6267376;28;19924;-65
2023/07/31 10:10:28;;;;;;;;;;;;;;;;;;6266983;28;19921;-64
2023/07/31 10:13:30;;;;;;;;;;;;;;;;;;6267753;28;19927;-64
2023/07/31 10:16:31;;;;;;;;;;;;;;;;;;6269107;28;19927;-63
2023/07/31 10:19:32;;;;;;;;;;;;;;;;;;6272101;28;20380;-62
2023/07/31 10:22:33;;;;;;;;;;;;;;;;;;6273664;28;20008;-65
2023/07/31 10:25:34;;;;;;;;;;;;;;;;;;6271321;28;20393;-63
2023/07/31 10:28:36;;;;;;;;;;;;;;;;;;6273935;28;20400;-62
2023/07/31 10:31:36;;;;;;;;;;;;;;;;;;6273174;28;19925;-64
2023/07/31 10:34:39;;;;;;;;;;;;;;;;;;6281018;28;20019;-64
2023/07/31 10:37:41;;;;;;;;;;;;;;;;;;6287854;27;19974;-65
2023/07/31 10:40:42;;;;;;;;;;;;;;;;;;6284431;28;19924;-64
2023/07/31 10:43:42;;;;;;;;;;;;;;;;;;6282267;28;19924;-65
2023/07/31 10:46:45;;;;;;;;;;;;;;;;;;6283428;28;20367;-65
2023/07/31 10:49:46;;;;;;;;;;;;;;;;;;6287062;28;19970;-62
2023/07/31 10:52:49;;;;;;;;;;;;;;;;;;6284292;28;20128;-65
2023/07/31 10:55:51;;;;;;;;;;;;;;;;;;6284011;28;20383;-64
2023/07/31 10:59:00;;;;;;;;;;;;;;;;;;6281171;28;19920;-63
2023/07/31 11:02:02;;;;;;;;;;;;;;;;;;6281827;28;20279;-64
2023/07/31 11:05:07;;;;;;;;;;;;;;;;;;6272381;28;20015;-65
2023/07/31 11:08:22;;;;;;;;;;;;;;;;;;6287482;28;19924;-63
2023/07/31 11:11:22;;;;;;;;;;;;;;;;;;6289704;28;20360;-63
2023/07/31 11:14:23;;;;;;;;;;;;;;;;;;6268596;28;19921;-62
2023/07/31 11:17:24;;;;;;;;;;;;;;;;;;6268791;28;19920;-62
2023/07/31 11:20:25;;;;;;;;;;;;;;;;;;6268786;28;20701;-61
2023/07/31 11:23:25;;;;;;;;;;;;;;;;;;6272072;28;19935;-63
2023/07/31 11:26:27;;;;;;;;;;;;;;;;;;6269397;28;19928;-62
2023/07/31 11:29:28;;;;;;;;;;;;;;;;;;6272549;28;19935;-61
2023/07/31 11:32:29;;;;;;;;;;;;;;;;;;6271998;28;19982;-62
2023/07/31 11:35:30;;;;;;;;;;;;;;;;;;6287868;28;19928;-61
2023/07/31 11:38:32;;;;;;;;;;;;;;;;;;6269272;28;20264;-62
2023/07/31 11:41:32;;;;;;;;;;;;;;;;;;6271471;28;19925;-62
2023/07/31 11:44:41;;;;;;;;;;;;;;;;;;6266828;28;20292;-62
2023/07/31 11:47:41;;;;;;;;;;;;;;;;;;6268496;28;19920;-62
2023/07/31 11:50:42;;;;;;;;;;;;;;;;;;6269741;28;20284;-63
2023/07/31 11:53:42;;;;;;;;;;;;;;;;;;6269655;28;19928;-65
2023/07/31 11:56:43;;;;;;;;;;;;;;;;;;6267802;28;19931;-65
2023/07/31 11:59:44;;;;;;;;;;;;;;;;;;6268419;28;20376;-65
2023/07/31 12:02:44;;;;;;;;;;;;;;;;;;6272358;28;19928;-64
2023/07/31 12:05:47;;;;;;;;;;;;;;;;;;6268791;28;19974;-63
2023/07/31 12:08:48;;;;;;;;;;;;;;;;;;6269650;28;19939;-62
2023/07/31 12:11:49;;;;;;;;;;;;;;;;;;6270821;28;19970;-64
2023/07/31 12:14:50;;;;;;;;;;;;;;;;;;6271330;28;19932;-63
2023/07/31 12:17:51;;;;;;;;;;;;;;;;;;6270156;28;19978;-63
2023/07/31 12:20:55;;;;;;;;;;;;;;;;;;6267710;28;20311;-63
2023/07/31 12:23:56;;;;;;;;;;;;;;;;;;6266707;28;19928;-65
2023/07/31 12:26:56;;;;;;;;;;;;;;;;;;6268082;28;19921;-65
2023/07/31 12:29:57;;;;;;;;;;;;;;;;;;6267589;28;19924;-64
2023/07/31 12:33:02;;;;;;;;;;;;;;;;;;6269625;28;19935;-63
2023/07/31 12:36:04;;;;;;;;;;;;;;;;;;6268541;28;19942;-65
2023/07/31 12:39:05;;;;;;;;;;;;;;;;;;6267222;28;19938;-65
2023/07/31 12:42:06;;;;;;;;;;;;;;;;;;6274259;28;19939;-64
2023/07/31 12:45:06;;;;;;;;;;;;;;;;;;6277156;28;19924;-60
2023/07/31 12:48:07;;;;;;;;;;;;;;;;;;6274006;28;20472;-61
2023/07/31 12:51:07;;;;;;;;;;;;;;;;;;6273414;28;19928;-61
2023/07/31 12:54:08;;;;;;;;;;;;;;;;;;6270722;28;19931;-61
2023/07/31 12:57:08;;;;;;;;;;;;;;;;;;6272841;28;19991;-61
2023/07/31 13:00:09;;;;;;;;;;;;;;;;;;6272477;28;19927;-61
2023/07/31 13:03:10;;;;;;;;;;;;;;;;;;6273665;28;19948;-61
2023/07/31 13:06:11;;;;;;;;;;;;;;;;;;6271588;28;19966;-62
2023/07/31 13:09:12;;;;;;;;;;;;;;;;;;6270981;28;20007;-61
2023/07/31 13:12:12;;;;;;;;;;;;;;;;;;6271625;28;19924;-61
2023/07/31 13:15:14;;;;;;;;;;;;;;;;;;6270575;28;19978;-61
2023/07/31 13:18:14;;;;;;;;;;;;;;;;;;6269848;28;19925;-60
2023/07/31 13:21:14;;;;;;;;;;;;;;;;;;6272284;28;20178;-64
2023/07/31 13:24:15;;;;;;;;;;;;;;;;;;6273003;28;19929;-61
2023/07/31 13:27:21;;;;;;;;;;;;;;;;;;6268987;28;20346;-61
2023/07/31 13:30:22;;;;;;;;;;;;;;;;;;6269597;28;19948;-61
2023/07/31 13:33:22;;;;;;;;;;;;;;;;;;6271132;28;20355;-61
2023/07/31 13:36:23;;;;;;;;;;;;;;;;;;6270657;28;20254;-61
2023/07/31 13:39:23;;;;;;;;;;;;;;;;;;6270251;28;19928;-63
2023/07/31 13:42:24;;;;;;;;;;;;;;;;;;6271090;28;20293;-63
2023/07/31 13:45:24;;;;;;;;;;;;;;;;;;6271367;28;19925;-62
2023/07/31 13:48:25;;;;;;;;;;;;;;;;;;6269218;28;19979;-62
2023/07/31 13:51:25;;;;;;;;;;;;;;;;;;6273745;28;19939;-64
2023/07/31 13:54:26;;;;;;;;;;;;;;;;;;6270585;28;19977;-62
2023/07/31 13:57:27;;;;;;;;;;;;;;;;;;6273926;28;19932;-63
2023/07/31 14:00:28;;;;;;;;;;;;;;;;;;6277081;28;20355;-63
2023/07/31 14:03:29;;;;;;;;;;;;;;;;;;6278565;28;19973;-64
2023/07/31 14:06:29;;;;;;;;;;;;;;;;;;6273675;28;20189;-61
2023/07/31 14:09:30;;;;;;;;;;;;;;;;;;6274293;28;19928;-64
2023/07/31 14:12:30;;;;;;;;;;;;;;;;;;6277720;28;19935;-63
2023/07/31 14:15:32;;;;;;;;;;;;;;;;;;6274105;28;20350;-61
2023/07/31 14:18:32;;;;;;;;;;;;;;;;;;6271460;28;19989;-62
2023/07/31 14:21:33;;;;;;;;;;;;;;;;;;6276653;28;20002;-61
2023/07/31 14:24:34;;;;;;;;;;;;;;;;;;6274652;28;19943;-62
2023/07/31 14:27:34;;;;;;;;;;;;;;;;;;6269010;28;20284;-60
2023/07/31 14:30:35;;;;;;;;;;;;;;;;;;6274207;28;20406;-61
2023/07/31 14:33:35;;;;;;;;;;;;;;;;;;6275082;28;20379;-61
2023/07/31 14:36:36;;;;;;;;;;;;;;;;;;6270569;28;19928;-61
2023/07/31 14:39:36;;;;;;;;;;;;;;;;;;6273042;28;19969;-61
2023/07/31 14:42:38;;;;;;;;;;;;;;;;;;6272717;28;19935;-65
2023/07/31 14:45:38;;;;;;;;;;;;;;;;;;6279687;28;20397;-60
2023/07/31 14:48:39;;;;;;;;;;;;;;;;;;6279659;28;19935;-62
2023/07/31 14:51:39;;;;;;;;;;;;;;;;;;6283079;28;19930;-62
2023/07/31 14:54:40;;;;;;;;;;;;;;;;;;6283838;28;20342;-60
2023/07/31 14:57:40;;;;;;;;;;;;;;;;;;6279088;28;20304;-61
2023/07/31 15:00:41;;;;;;;;;;;;;;;;;;6281864;28;19928;-61
2023/07/31 15:03:41;;;;;;;;;;;;;;;;;;6285348;28;19920;-62
2023/07/31 15:06:42;;;;;;;;;;;;;;;;;;6281721;28;19925;-62
2023/07/31 15:09:42;;;;;;;;;;;;;;;;;;6282363;28;20024;-63
2023/07/31 15:12:43;;;;;;;;;;;;;;;;;;6285164;28;19931;-61
2023/07/31 15:15:43;;;;;;;;;;;;;;;;;;6284338;28;19924;-62
2023/07/31 15:18:44;;;;;;;;;;;;;;;;;;6279017;28;20439;-63
2023/07/31 15:21:44;;;;;;;;;;;;;;;;;;6283273;28;20265;-62
2023/07/31 15:24:45;;;;;;;;;;;;;;;;;;6284518;28;19920;-64
2023/07/31 15:27:45;;;;;;;;;;;;;;;;;;6278697;28;19966;-62
2023/07/31 15:30:46;;;;;;;;;;;;;;;;;;6285099;28;19943;-60
2023/07/31 15:33:46;;;;;;;;;;;;;;;;;;6282997;28;20280;-61
2023/07/31 15:36:48;;;;;;;;;;;;;;;;;;6280152;28;19959;-61
2023/07/31 15:39:48;;;;;;;;;;;;;;;;;;6282288;28;19935;-61
2023/07/31 15:42:48;;;;;;;;;;;;;;;;;;6282806;28;20299;-62
2023/07/31 15:45:49;;;;;;;;;;;;;;;;;;6281843;28;20366;-59
2023/07/31 15:48:50;;;;;;;;;;;;;;;;;;6278263;28;19997;-64
2023/07/31 15:51:50;;;;;;;;;;;;;;;;;;6281197;28;19924;-63
2023/07/31 15:54:51;;;;;;;;;;;;;;;;;;6284471;28;19977;-68
2023/07/31 15:57:51;;;;;;;;;;;;;;;;;;6276961;28;19975;-68
2023/07/31 16:00:52;;;;;;;;;;;;;;;;;;6283538;28;19924;-64
2023/07/31 16:03:53;;;;;;;;;;;;;;;;;;6284313;28;19982;-58
2023/07/31 16:06:53;;;;;;;;;;;;;;;;;;6277196;28;20579;-63
2023/07/31 16:09:54;;;;;;;;;;;;;;;;;;6283147;28;19927;-62
2023/07/31 16:12:54;;;;;;;;;;;;;;;;;;6283802;28;19927;-71
2023/07/31 16:15:54;;;;;;;;;;;;;;;;;;6282282;28;19946;-69
2023/07/31 16:18:55;;;;;;;;;;;;;;;;;;6276919;28;19929;-64
2023/07/31 16:21:56;;;;;;;;;;;;;;;;;;6280812;28;19940;-62
2023/07/31 16:24:56;;;;;;;;;;;;;;;;;;6279951;28;19939;-65
2023/07/31 16:27:57;;;;;;;;;;;;;;;;;;6275052;28;20431;-61
2023/07/31 16:30:58;;;;;;;;;;;;;;;;;;6313183;28;20448;-63
2023/07/31 16:33:58;;;;;;;;;;;;;;;;;;6279895;28;19947;-61
2023/07/31 16:36:59;;;;;;;;;;;;;;;;;;6276654;28;19935;-61
2023/07/31 16:40:00;;;;;;;;;;;;;;;;;;6277752;28;19978;-64
2023/07/31 16:43:01;;;;;;;;;;;;;;;;;;6278098;28;20048;-64
2023/07/31 16:46:02;;;;;;;;;;;;;;;;;;6277170;28;20619;-64
2023/07/31 16:49:03;;;;;;;;;;;;;;;;;;6277877;28;19960;-62
2023/07/31 16:52:04;;;;;;;;;;;;;;;;;;6281980;28;19978;-63
2023/07/31 16:55:05;;;;;;;;;;;;;;;;;;6278726;28;19932;-62
2023/07/31 16:58:05;;;;;;;;;;;;;;;;;;6278078;28;19935;-62
2023/07/31 17:01:06;;;;;;;;;;;;;;;;;;6279645;28;20013;-62
2023/07/31 17:04:06;;;;;;;;;;;;;;;;;;6280606;28;19924;-63
2023/07/31 17:07:07;;;;;;;;;;;;;;;;;;6276850;28;19935;-63
2023/07/31 17:10:07;;;;;;;;;;;;;;;;;;6282541;28;19929;-63
2023/07/31 17:13:08;;;;;;;;;;;;;;;;;;6280756;28;20074;-61
2023/07/31 17:16:08;;;;;;;;;;;;;;;;;;6278079;28;20449;-63
2023/07/31 17:19:09;;;;;;;;;;;;;;;;;;6275635;28;19924;-62
2023/07/31 17:22:09;;;;;;;;;;;;;;;;;;6280521;28;19928;-62
2023/07/31 17:25:10;;;;;;;;;;;;;;;;;;6279803;28;20340;-62
2023/07/31 17:28:10;;;;;;;;;;;;;;;;;;6277267;28;20795;-62
2023/07/31 17:31:12;;;;;;;;;;;;;;;;;;6286365;28;20218;-61
2023/07/31 17:34:12;;;;;;;;;;;;;;;;;;6287048;28;19920;-62
2023/07/31 17:37:13;;;;;;;;;;;;;;;;;;6281244;28;19931;-62
2023/07/31 17:40:14;;;;;;;;;;;;;;;;;;6287684;28;20474;-62
2023/07/31 17:43:14;;;;;;;;;;;;;;;;;;6286098;28;19922;-63
2023/07/31 17:46:15;;;;;;;;;;;;;;;;;;6285987;28;19921;-62
2023/07/31 17:49:15;;;;;;;;;;;;;;;;;;6282409;28;20023;-62
2023/07/31 17:52:15;;;;;;;;;;;;;;;;;;6286171;28;20374;-61
2023/07/31 17:55:16;;;;;;;;;;;;;;;;;;6280575;28;19964;-63
2023/07/31 17:58:17;;;;;;;;;;;;;;;;;;6287277;28;19931;-61
2023/07/31 18:01:17;;;;;;;;;;;;;;;;;;6296400;28;19924;-63
2023/07/31 18:04:18;;;;;;;;;;;;;;;;;;6297919;28;19924;-62
2023/07/31 18:07:18;;;;;;;;;;;;;;;;;;6287511;28;19927;-62
2023/07/31 18:10:19;;;;;;;;;;;;;;;;;;6295346;28;19931;-63
2023/07/31 18:13:19;;;;;;;;;;;;;;;;;;6295165;28;19935;-63
2023/07/31 18:16:20;;;;;;;;;;;;;;;;;;6292078;28;19943;-60
2023/07/31 18:19:20;;;;;;;;;;;;;;;;;;6288630;28;19928;-62
2023/07/31 18:22:21;;;;;;;;;;;;;;;;;;6296533;28;19936;-61
2023/07/31 18:25:22;;;;;;;;;;;;;;;;;;6290977;28;19977;-61
2023/07/31 18:28:22;;;;;;;;;;;;;;;;;;6289025;28;19928;-61
2023/07/31 18:31:23;;;;;;;;;;;;;;;;;;6296388;28;19928;-62
2023/07/31 18:34:23;;;;;;;;;;;;;;;;;;6295107;28;20462;-62
2023/07/31 18:37:24;;;;;;;;;;;;;;;;;;6288370;28;19929;-61
2023/07/31 18:40:24;;;;;;;;;;;;;;;;;;6293981;28;19924;-61
2023/07/31 18:43:25;;;;;;;;;;;;;;;;;;6287866;28;19946;-62
2023/07/31 18:46:25;;;;;;;;;;;;;;;;;;6287415;28;20379;-62
2023/07/31 18:49:26;;;;;;;;;;;;;;;;;;6290313;28;19932;-61
2023/07/31 18:52:27;;;;;;;;;;;;;;;;;;6295177;28;20272;-62
2023/07/31 18:55:27;;;;;;;;;;;;;;;;;;6294997;28;20291;-61
2023/07/31 18:58:28;;;;;;;;;;;;;;;;;;6283216;28;20387;-61
2023/07/31 19:01:28;;;;;;;;;;;;;;;;;;6296110;28;19930;-61
2023/07/31 19:04:29;;;;;;;;;;;;;;;;;;6293358;28;19959;-62
2023/07/31 19:07:29;;;;;;;;;;;;;;;;;;6287298;28;19971;-63
2023/07/31 19:10:36;;;;;;;;;;;;;;;;;;6293227;28;20399;-60
2023/07/31 19:13:37;;;;;;;;;;;;;;;;;;6296405;28;19932;-57
2023/07/31 19:16:37;;;;;;;;;;;;;;;;;;6291970;28;19932;-59
2023/07/31 19:19:38;;;;;;;;;;;;;;;;;;6282359;28;20418;-57
2023/07/31 19:22:38;;;;;;;;;;;;;;;;;;6313726;27;19932;-57
2023/07/31 19:25:39;;;;;;;;;;;;;;;;;;6284417;28;19924;-56
2023/07/31 19:28:40;;;;;;;;;;;;;;;;;;6277707;28;20403;-58
2023/07/31 19:31:42;;;;;;;;;;;;;;;;;;6285076;28;19938;-62
2023/07/31 19:34:42;;;;;;;;;;;;;;;;;;6282487;28;19924;-61
2023/07/31 19:37:43;;;;;;;;;;;;;;;;;;6278558;28;19928;-62
2023/07/31 19:40:43;;;;;;;;;;;;;;;;;;6284447;28;19951;-63
2023/07/31 19:43:44;;;;;;;;;;;;;;;;;;6284172;28;19935;-62
2023/07/31 19:46:44;;;;;;;;;;;;;;;;;;6280236;28;21795;-61
2023/07/31 19:49:45;;;;;;;;;;;;;;;;;;6280762;28;19921;-61
2023/07/31 19:52:46;;;;;;;;;;;;;;;;;;6282576;28;19920;-60
2023/07/31 19:55:47;;;;;;;;;;;;;;;;;;6279864;28;19928;-61
2023/07/31 19:58:47;;;;;;;;;;;;;;;;;;6278280;28;20359;-62
2023/07/31 20:01:48;;;;;;;;;;;;;;;;;;6270148;28;19928;-61
2023/07/31 20:04:48;;;;;;;;;;;;;;;;;;6268648;28;19931;-61
2023/07/31 20:07:49;;;;;;;;;;;;;;;;;;6263933;28;19924;-59
2023/07/31 20:10:49;;;;;;;;;;;;;;;;;;6289288;28;20295;-62
2023/07/31 20:13:50;;;;;;;;;;;;;;;;;;6277661;28;19929;-62
2023/07/31 20:16:50;;;;;;;;;;;;;;;;;;6279288;28;19966;-62
2023/07/31 20:19:51;;;;;;;;;;;;;;;;;;6271319;28;19924;-60
2023/07/31 20:22:51;;;;;;;;;;;;;;;;;;6268681;28;19925;-60
2023/07/31 20:25:52;;;;;;;;;;;;;;;;;;6267900;28;20364;-61
2023/07/31 20:28:52;;;;;;;;;;;;;;;;;;6268128;28;19920;-61
2023/07/31 20:31:53;;;;;;;;;;;;;;;;;;6271848;28;19932;-60
2023/07/31 20:34:53;;;;;;;;;;;;;;;;;;6266168;28;19935;-62